Standard, Canada
Current Conditions -  °F | °C
As of 2:00 AM on Friday 31 Oct 2014 (Local Time) from CYYC Reporting Station
Scattered Clouds Scattered Clouds  
Wind Chill: 33°   Ceiling: Unl
Heat Index: 41°   Visibility: 15mi
Dew Point: 34°   Wind: 15mph
Humidity: 76%   Direction: 180°S
Pressure: 29.77"   Gusts: NA
Location:  51.12°N, 112.98°W
Report Text: CYYC 310800Z 18013KT 15SM SCT210 05/01 A2977 RMK CI3 SLP119
Loading
Personal Weather Stations






























Interactive Weather Map
Tropical Storm Tracking
New forecast layout! Learn more

10-Day Weather Forecast

Advertisements
Track Severe Weather on mobile